sensor_id;sensor_type;location;lat;lon;timestamp;temperature;humidity
51486;DHT22;37565;51.352;6.412;2023-04-01T09:15:16;19.20;96.20
51486;DHT22;37565;51.352;6.412;2023-04-01T09:18:09;18.40;96.10
51486;DHT22;37565;51.352;6.412;2023-04-01T09:21:03;18.60;95.70
51486;DHT22;37565;51.352;6.412;2023-04-01T09:23:45;18.70;95.60
51486;DHT22;37565;51.352;6.412;2023-04-01T09:26:44;18.70;95.60
51486;DHT22;37565;51.352;6.412;2023-04-01T09:29:31;18.70;95.60
51486;DHT22;37565;51.352;6.412;2023-04-01T09:32:26;18.70;95.70
51486;DHT22;37565;51.352;6.412;2023-04-01T09:35:14;18.70;95.70
51486;DHT22;37565;51.352;6.412;2023-04-01T09:37:53;18.70;95.70
51486;DHT22;37565;51.352;6.412;2023-04-01T09:40:31;18.80;95.80
51486;DHT22;37565;51.352;6.412;2023-04-01T09:43:25;18.70;95.70
51486;DHT22;37565;51.352;6.412;2023-04-01T09:46:04;18.70;95.80
51486;DHT22;37565;51.352;6.412;2023-04-01T09:48:52;18.80;95.80
51486;DHT22;37565;51.352;6.412;2023-04-01T09:51:28;18.80;95.80
51486;DHT22;37565;51.352;6.412;2023-04-01T09:54:11;18.80;95.90
51486;DHT22;37565;51.352;6.412;2023-04-01T10:00:10;18.80;95.90
51486;DHT22;37565;51.352;6.412;2023-04-01T10:03:16;18.80;96.00
51486;DHT22;37565;51.352;6.412;2023-04-01T10:09:24;18.80;95.90
51486;DHT22;37565;51.352;6.412;2023-04-01T10:12:24;18.80;95.90
51486;DHT22;37565;51.352;6.412;2023-04-01T10:15:24;18.80;96.00
51486;DHT22;37565;51.352;6.412;2023-04-01T10:18:24;18.80;96.00
51486;DHT22;37565;51.352;6.412;2023-04-01T10:21:17;18.80;96.00
51486;DHT22;37565;51.352;6.412;2023-04-01T10:24:05;18.80;96.10
51486;DHT22;37565;51.352;6.412;2023-04-01T10:30:05;18.80;96.00
51486;DHT22;37565;51.352;6.412;2023-04-01T10:36:27;18.80;96.10
51486;DHT22;37565;51.352;6.412;2023-04-01T10:42:25;18.80;96.50
51486;DHT22;37565;51.352;6.412;2023-04-01T10:45:43;18.80;96.50
51486;DHT22;37565;51.352;6.412;2023-04-01T10:48:40;18.80;96.70
51486;DHT22;37565;51.352;6.412;2023-04-01T10:51:26;18.80;96.80
51486;DHT22;37565;51.352;6.412;2023-04-01T10:57:14;18.80;97.20
51486;DHT22;37565;51.352;6.412;2023-04-01T11:00:10;18.80;97.50
51486;DHT22;37565;51.352;6.412;2023-04-01T11:03:16;18.90;97.50
51486;DHT22;37565;51.352;6.412;2023-04-01T11:06:28;18.90;97.70
51486;DHT22;37565;51.352;6.412;2023-04-01T11:13:03;18.90;97.70
51486;DHT22;37565;51.352;6.412;2023-04-01T11:16:01;18.90;97.70
51486;DHT22;37565;51.352;6.412;2023-04-01T11:24:47;18.90;97.80
51486;DHT22;37565;51.352;6.412;2023-04-01T11:27:26;18.90;97.90
51486;DHT22;37565;51.352;6.412;2023-04-01T11:30:19;18.90;97.90
51486;DHT22;37565;51.352;6.412;2023-04-01T11:32:53;18.90;98.10
51486;DHT22;37565;51.352;6.412;2023-04-01T11:35:55;18.90;98.10
51486;DHT22;37565;51.352;6.412;2023-04-01T11:38:34;18.90;98.10
51486;DHT22;37565;51.352;6.412;2023-04-01T11:41:19;18.90;98.20
51486;DHT22;37565;51.352;6.412;2023-04-01T11:44:07;18.90;98.20
51486;DHT22;37565;51.352;6.412;2023-04-01T11:46:44;18.90;98.20
51486;DHT22;37565;51.352;6.412;2023-04-01T11:49:29;19.00;98.30
51486;DHT22;37565;51.352;6.412;2023-04-01T11:52:15;19.00;98.30
51486;DHT22;37565;51.352;6.412;2023-04-01T11:55:02;19.00;98.30
51486;DHT22;37565;51.352;6.412;2023-04-01T11:57:46;19.00;98.30
51486;DHT22;37565;51.352;6.412;2023-04-01T12:00:48;19.00;98.30
51486;DHT22;37565;51.352;6.412;2023-04-01T12:06:20;19.10;98.40
51486;DHT22;37565;51.352;6.412;2023-04-01T12:08:55;19.00;97.90
51486;DHT22;37565;51.352;6.412;2023-04-01T12:11:34;19.00;97.70
51486;DHT22;37565;51.352;6.412;2023-04-01T12:14:13;19.00;97.70
51486;DHT22;37565;51.352;6.412;2023-04-01T12:16:52;19.00;97.70
51486;DHT22;37565;51.352;6.412;2023-04-01T12:19:29;19.00;97.70
51486;DHT22;37565;51.352;6.412;2023-04-01T12:25:14;19.00;97.80
51486;DHT22;37565;51.352;6.412;2023-04-01T12:27:53;19.00;97.90
51486;DHT22;37565;51.352;6.412;2023-04-01T12:30:41;19.00;98.30
51486;DHT22;37565;51.352;6.412;2023-04-01T12:33:37;19.00;98.40
51486;DHT22;37565;51.352;6.412;2023-04-01T12:36:18;19.00;98.50
51486;DHT22;37565;51.352;6.412;2023-04-01T12:39:14;19.00;98.60
51486;DHT22;37565;51.352;6.412;2023-04-01T12:41:48;19.00;98.80
51486;DHT22;37565;51.352;6.412;2023-04-01T12:44:29;18.90;98.80
51486;DHT22;37565;51.352;6.412;2023-04-01T12:47:25;18.90;99.20
51486;DHT22;37565;51.352;6.412;2023-04-01T12:50:09;18.90;98.90
51486;DHT22;37565;51.352;6.412;2023-04-01T12:53:00;18.90;98.80
51486;DHT22;37565;51.352;6.412;2023-04-01T12:55:50;19.00;98.80
51486;DHT22;37565;51.352;6.412;2023-04-01T12:58:33;19.00;98.90
51486;DHT22;37565;51.352;6.412;2023-04-01T13:01:39;19.00;99.10
51486;DHT22;37565;51.352;6.412;2023-04-01T13:07:26;19.00;99.40
51486;DHT22;37565;51.352;6.412;2023-04-01T13:10:06;19.00;99.90
51486;DHT22;37565;51.352;6.412;2023-04-01T13:12:59;19.00;99.90
51486;DHT22;37565;51.352;6.412;2023-04-01T13:15:32;19.00;99.90
51486;DHT22;37565;51.352;6.412;2023-04-01T13:18:16;19.00;99.90
51486;DHT22;37565;51.352;6.412;2023-04-01T13:20:54;19.00;99.90
51486;DHT22;37565;51.352;6.412;2023-04-01T13:23:35;19.00;99.90
51486;DHT22;37565;51.352;6.412;2023-04-01T13:26:13;19.00;99.90
51486;DHT22;37565;51.352;6.412;2023-04-01T13:28:47;19.10;99.90
51486;DHT22;37565;51.352;6.412;2023-04-01T13:31:29;19.10;99.90
51486;DHT22;37565;51.352;6.412;2023-04-01T13:34:06;19.20;99.90
51486;DHT22;37565;51.352;6.412;2023-04-01T13:36:41;19.20;99.90
51486;DHT22;37565;51.352;6.412;2023-04-01T13:39:32;19.20;99.90
51486;DHT22;37565;51.352;6.412;2023-04-01T13:42:14;19.20;99.90
51486;DHT22;37565;51.352;6.412;2023-04-01T13:44:47;19.20;99.90
51486;DHT22;37565;51.352;6.412;2023-04-01T13:47:28;19.20;99.90
51486;DHT22;37565;51.352;6.412;2023-04-01T13:50:19;19.10;99.90
51486;DHT22;37565;51.352;6.412;2023-04-01T13:56:03;19.20;99.90
51486;DHT22;37565;51.352;6.412;2023-04-01T13:58:55;19.20;99.80
51486;DHT22;37565;51.352;6.412;2023-04-01T14:01:35;19.30;99.70
51486;DHT22;37565;51.352;6.412;2023-04-01T14:04:23;19.30;99.50
51486;DHT22;37565;51.352;6.412;2023-04-01T14:07:00;19.40;99.30
51486;DHT22;37565;51.352;6.412;2023-04-01T14:09:59;19.40;99.30
51486;DHT22;37565;51.352;6.412;2023-04-01T14:12:31;19.30;99.20
51486;DHT22;37565;51.352;6.412;2023-04-01T14:15:25;19.40;99.20
51486;DHT22;37565;51.352;6.412;2023-04-01T14:18:10;19.30;99.10
51486;DHT22;37565;51.352;6.412;2023-04-01T14:20:46;19.30;99.00
51486;DHT22;37565;51.352;6.412;2023-04-01T14:23:39;19.30;99.00
51486;DHT22;37565;51.352;6.412;2023-04-01T14:26:21;19.30;99.00
51486;DHT22;37565;51.352;6.412;2023-04-01T14:28:59;19.30;99.00
51486;DHT22;37565;51.352;6.412;2023-04-01T14:31:34;19.30;98.90
51486;DHT22;37565;51.352;6.412;2023-04-01T14:34:19;19.30;99.00
51486;DHT22;37565;51.352;6.412;2023-04-01T14:37:04;19.30;99.00
51486;DHT22;37565;51.352;6.412;2023-04-01T14:39:43;19.20;98.90
51486;DHT22;37565;51.352;6.412;2023-04-01T14:42:31;19.20;98.90
51486;DHT22;37565;51.352;6.412;2023-04-01T14:45:25;19.20;98.90
51486;DHT22;37565;51.352;6.412;2023-04-01T14:48:05;19.20;98.90
51486;DHT22;37565;51.352;6.412;2023-04-01T14:50:44;19.20;98.90
51486;DHT22;37565;51.352;6.412;2023-04-01T14:53:24;19.20;98.90
51486;DHT22;37565;51.352;6.412;2023-04-01T14:55:55;19.20;98.90
51486;DHT22;37565;51.352;6.412;2023-04-01T14:58:24;19.20;98.90
51486;DHT22;37565;51.352;6.412;2023-04-01T15:01:00;19.20;98.90
51486;DHT22;37565;51.352;6.412;2023-04-01T15:03:38;19.20;98.80
51486;DHT22;37565;51.352;6.412;2023-04-01T15:06:27;19.20;98.70
51486;DHT22;37565;51.352;6.412;2023-04-01T15:09:05;19.20;98.90
51486;DHT22;37565;51.352;6.412;2023-04-01T15:11:48;19.20;98.80
51486;DHT22;37565;51.352;6.412;2023-04-01T15:14:35;19.20;98.90
51486;DHT22;37565;51.352;6.412;2023-04-01T15:17:18;19.20;99.00
51486;DHT22;37565;51.352;6.412;2023-04-01T15:20:00;19.20;99.10
51486;DHT22;37565;51.352;6.412;2023-04-01T15:22:51;19.20;99.00
51486;DHT22;37565;51.352;6.412;2023-04-01T15:25:34;19.20;99.00
51486;DHT22;37565;51.352;6.412;2023-04-01T15:28:13;19.20;99.00
51486;DHT22;37565;51.352;6.412;2023-04-01T15:30:51;19.20;99.10
51486;DHT22;37565;51.352;6.412;2023-04-01T15:33:37;19.20;99.00
51486;DHT22;37565;51.352;6.412;2023-04-01T15:36:16;19.20;99.00
51486;DHT22;37565;51.352;6.412;2023-04-01T15:38:52;19.20;99.00
51486;DHT22;37565;51.352;6.412;2023-04-01T15:43:53;19.10;99.00
51486;DHT22;37565;51.352;6.412;2023-04-01T15:46:41;19.00;99.10
51486;DHT22;37565;51.352;6.412;2023-04-01T15:49:20;19.10;99.30
51486;DHT22;37565;51.352;6.412;2023-04-01T15:52:02;19.20;99.50
51486;DHT22;37565;51.352;6.412;2023-04-01T15:54:48;19.10;99.60
51486;DHT22;37565;51.352;6.412;2023-04-01T15:57:32;19.10;99.70
51486;DHT22;37565;51.352;6.412;2023-04-01T16:00:23;19.20;99.80
51486;DHT22;37565;51.352;6.412;2023-04-01T16:06:01;19.20;99.90
51486;DHT22;37565;51.352;6.412;2023-04-01T16:09:02;19.10;99.90
51486;DHT22;37565;51.352;6.412;2023-04-01T16:11:41;19.10;99.90
51486;DHT22;37565;51.352;6.412;2023-04-01T16:14:25;19.10;99.90
51486;DHT22;37565;51.352;6.412;2023-04-01T16:17:00;19.10;99.90
51486;DHT22;37565;51.352;6.412;2023-04-01T16:19:39;19.10;99.90
51486;DHT22;37565;51.352;6.412;2023-04-01T16:22:13;19.20;99.90
51486;DHT22;37565;51.352;6.412;2023-04-01T16:24:46;19.20;99.80
51486;DHT22;37565;51.352;6.412;2023-04-01T16:27:23;19.20;99.90
51486;DHT22;37565;51.352;6.412;2023-04-01T16:29:56;19.20;99.90
51486;DHT22;37565;51.352;6.412;2023-04-01T16:32:31;19.20;99.90
51486;DHT22;37565;51.352;6.412;2023-04-01T16:35:19;19.20;99.90
51486;DHT22;37565;51.352;6.412;2023-04-01T16:37:52;19.20;99.90
51486;DHT22;37565;51.352;6.412;2023-04-01T16:40:31;19.20;99.90
51486;DHT22;37565;51.352;6.412;2023-04-01T16:43:13;19.20;99.90
51486;DHT22;37565;51.352;6.412;2023-04-01T16:45:45;19.20;99.90
51486;DHT22;37565;51.352;6.412;2023-04-01T16:48:22;19.10;99.90
51486;DHT22;37565;51.352;6.412;2023-04-01T16:50:58;19.10;99.90
51486;DHT22;37565;51.352;6.412;2023-04-01T16:53:36;19.10;99.90
51486;DHT22;37565;51.352;6.412;2023-04-01T16:56:13;19.10;99.90
51486;DHT22;37565;51.352;6.412;2023-04-01T16:58:57;19.10;99.90
51486;DHT22;37565;51.352;6.412;2023-04-01T17:01:29;19.10;99.90
51486;DHT22;37565;51.352;6.412;2023-04-01T17:04:04;19.20;99.90
51486;DHT22;37565;51.352;6.412;2023-04-01T17:06:42;19.20;99.90
51486;DHT22;37565;51.352;6.412;2023-04-01T17:09:24;19.20;99.90
51486;DHT22;37565;51.352;6.412;2023-04-01T17:11:57;19.20;99.90
51486;DHT22;37565;51.352;6.412;2023-04-01T17:14:32;19.20;99.90
51486;DHT22;37565;51.352;6.412;2023-04-01T17:17:14;19.10;99.90
51486;DHT22;37565;51.352;6.412;2023-04-01T17:20:01;19.20;99.90
51486;DHT22;37565;51.352;6.412;2023-04-01T17:22:33;19.20;99.90
51486;DHT22;37565;51.352;6.412;2023-04-01T17:25:21;19.10;99.90
51486;DHT22;37565;51.352;6.412;2023-04-01T17:27:57;19.20;99.90
51486;DHT22;37565;51.352;6.412;2023-04-01T17:30:33;19.20;99.90
51486;DHT22;37565;51.352;6.412;2023-04-01T17:33:20;19.20;99.90
51486;DHT22;37565;51.352;6.412;2023-04-01T17:35:57;19.10;99.90
51486;DHT22;37565;51.352;6.412;2023-04-01T17:38:46;19.10;99.90
51486;DHT22;37565;51.352;6.412;2023-04-01T17:41:25;19.10;99.90
51486;DHT22;37565;51.352;6.412;2023-04-01T17:44:02;19.10;99.90
51486;DHT22;37565;51.352;6.412;2023-04-01T17:46:45;19.10;99.90
51486;DHT22;37565;51.352;6.412;2023-04-01T17:49:21;19.10;99.90
51486;DHT22;37565;51.352;6.412;2023-04-01T17:51:57;19.10;99.90
51486;DHT22;37565;51.352;6.412;2023-04-01T17:54:34;19.10;99.90
51486;DHT22;37565;51.352;6.412;2023-04-01T17:57:29;19.10;99.90
51486;DHT22;37565;51.352;6.412;2023-04-01T18:00:02;19.10;99.90
51486;DHT22;37565;51.352;6.412;2023-04-01T18:02:39;19.10;99.90
51486;DHT22;37565;51.352;6.412;2023-04-01T18:05:24;19.10;99.90
51486;DHT22;37565;51.352;6.412;2023-04-01T18:08:15;19.10;99.90
51486;DHT22;37565;51.352;6.412;2023-04-01T18:10:54;19.10;99.90
51486;DHT22;37565;51.352;6.412;2023-04-01T18:13:40;19.10;99.90
51486;DHT22;37565;51.352;6.412;2023-04-01T18:16:30;19.10;99.90
51486;DHT22;37565;51.352;6.412;2023-04-01T18:19:09;19.10;99.90
51486;DHT22;37565;51.352;6.412;2023-04-01T18:21:46;19.10;99.90
51486;DHT22;37565;51.352;6.412;2023-04-01T18:24:20;19.10;99.90
51486;DHT22;37565;51.352;6.412;2023-04-01T18:27:01;19.10;99.90
51486;DHT22;37565;51.352;6.412;2023-04-01T18:29:37;19.10;99.90
51486;DHT22;37565;51.352;6.412;2023-04-01T18:32:13;19.10;99.90
51486;DHT22;37565;51.352;6.412;2023-04-01T18:34:55;19.10;99.90
51486;DHT22;37565;51.352;6.412;2023-04-01T18:37:28;19.10;99.90
51486;DHT22;37565;51.352;6.412;2023-04-01T18:40:03;19.10;99.90
51486;DHT22;37565;51.352;6.412;2023-04-01T18:42:43;19.10;99.90
51486;DHT22;37565;51.352;6.412;2023-04-01T18:45:20;19.10;99.90
51486;DHT22;37565;51.352;6.412;2023-04-01T18:47:57;19.10;99.90
51486;DHT22;37565;51.352;6.412;2023-04-01T18:50:34;19.10;99.90
51486;DHT22;37565;51.352;6.412;2023-04-01T18:53:15;19.10;99.90
51486;DHT22;37565;51.352;6.412;2023-04-01T18:55:47;19.10;99.90
51486;DHT22;37565;51.352;6.412;2023-04-01T18:58:25;19.10;99.90
51486;DHT22;37565;51.352;6.412;2023-04-01T19:01:12;19.10;99.90
51486;DHT22;37565;51.352;6.412;2023-04-01T19:03:52;19.10;99.90
51486;DHT22;37565;51.352;6.412;2023-04-01T19:06:27;19.10;99.90
51486;DHT22;37565;51.352;6.412;2023-04-01T19:09:11;19.20;99.90
51486;DHT22;37565;51.352;6.412;2023-04-01T19:11:45;19.20;99.90
51486;DHT22;37565;51.352;6.412;2023-04-01T19:14:21;19.10;99.90
51486;DHT22;37565;51.352;6.412;2023-04-01T19:16:58;19.20;99.90
51486;DHT22;37565;51.352;6.412;2023-04-01T19:19:37;19.20;99.90
51486;DHT22;37565;51.352;6.412;2023-04-01T19:22:32;19.10;99.90
51486;DHT22;37565;51.352;6.412;2023-04-01T19:25:25;19.10;99.90
51486;DHT22;37565;51.352;6.412;2023-04-01T19:28:01;19.10;99.90
51486;DHT22;37565;51.352;6.412;2023-04-01T19:30:42;19.10;99.90
51486;DHT22;37565;51.352;6.412;2023-04-01T19:33:28;19.20;99.90
51486;DHT22;37565;51.352;6.412;2023-04-01T19:36:09;19.20;99.90
51486;DHT22;37565;51.352;6.412;2023-04-01T19:38:41;19.20;99.90
51486;DHT22;37565;51.352;6.412;2023-04-01T19:41:20;19.20;99.90
51486;DHT22;37565;51.352;6.412;2023-04-01T19:43:57;19.20;99.90
51486;DHT22;37565;51.352;6.412;2023-04-01T19:46:30;19.20;99.90
51486;DHT22;37565;51.352;6.412;2023-04-01T19:49:13;19.20;99.90
51486;DHT22;37565;51.352;6.412;2023-04-01T19:51:47;19.30;99.90
51486;DHT22;37565;51.352;6.412;2023-04-01T19:54:26;19.30;99.90
51486;DHT22;37565;51.352;6.412;2023-04-01T19:57:00;19.30;99.90
51486;DHT22;37565;51.352;6.412;2023-04-01T19:59:34;19.20;99.90
51486;DHT22;37565;51.352;6.412;2023-04-01T20:02:28;19.30;99.90
51486;DHT22;37565;51.352;6.412;2023-04-01T20:05:10;19.20;99.90
51486;DHT22;37565;51.352;6.412;2023-04-01T20:07:47;19.20;99.90
51486;DHT22;37565;51.352;6.412;2023-04-01T20:10:23;19.30;99.90
51486;DHT22;37565;51.352;6.412;2023-04-01T20:13:03;19.20;99.90
51486;DHT22;37565;51.352;6.412;2023-04-01T20:15:34;19.20;99.90
51486;DHT22;37565;51.352;6.412;2023-04-01T20:18:12;19.20;99.90
51486;DHT22;37565;51.352;6.412;2023-04-01T20:20:53;19.20;99.90
51486;DHT22;37565;51.352;6.412;2023-04-01T20:23:32;19.30;99.90
51486;DHT22;37565;51.352;6.412;2023-04-01T20:26:06;19.30;99.90
51486;DHT22;37565;51.352;6.412;2023-04-01T20:28:43;19.30;99.90
51486;DHT22;37565;51.352;6.412;2023-04-01T20:31:31;19.30;99.90
51486;DHT22;37565;51.352;6.412;2023-04-01T20:34:33;19.20;99.90
51486;DHT22;37565;51.352;6.412;2023-04-01T20:37:16;19.20;99.90
51486;DHT22;37565;51.352;6.412;2023-04-01T20:43:02;19.20;99.90
51486;DHT22;37565;51.352;6.412;2023-04-01T20:45:40;19.20;99.90
51486;DHT22;37565;51.352;6.412;2023-04-01T20:48:32;19.20;99.90
51486;DHT22;37565;51.352;6.412;2023-04-01T20:51:05;19.20;99.90
51486;DHT22;37565;51.352;6.412;2023-04-01T20:53:36;19.20;99.90
51486;DHT22;37565;51.352;6.412;2023-04-01T20:59:09;19.20;99.90
51486;DHT22;37565;51.352;6.412;2023-04-01T21:01:43;19.20;99.90
51486;DHT22;37565;51.352;6.412;2023-04-01T21:04:23;19.20;99.90
51486;DHT22;37565;51.352;6.412;2023-04-01T21:07:14;19.20;99.90
51486;DHT22;37565;51.352;6.412;2023-04-01T21:10:18;19.20;99.90
51486;DHT22;37565;51.352;6.412;2023-04-01T21:12:53;19.10;99.90
51486;DHT22;37565;51.352;6.412;2023-04-01T21:15:34;19.10;99.90
51486;DHT22;37565;51.352;6.412;2023-04-01T21:18:19;19.20;99.90
51486;DHT22;37565;51.352;6.412;2023-04-01T21:21:00;19.20;99.90
51486;DHT22;37565;51.352;6.412;2023-04-01T21:26:47;19.20;99.90
51486;DHT22;37565;51.352;6.412;2023-04-01T21:32:35;19.20;99.90
51486;DHT22;37565;51.352;6.412;2023-04-01T21:35:08;19.20;99.90
51486;DHT22;37565;51.352;6.412;2023-04-01T21:38:09;19.20;99.90
51486;DHT22;37565;51.352;6.412;2023-04-01T21:44:14;19.20;99.90
51486;DHT22;37565;51.352;6.412;2023-04-01T21:50:17;19.20;99.90
51486;DHT22;37565;51.352;6.412;2023-04-01T21:59:27;19.10;99.90
51486;DHT22;37565;51.352;6.412;2023-04-01T22:02:15;19.20;99.90
51486;DHT22;37565;51.352;6.412;2023-04-01T22:04:52;19.20;99.90
51486;DHT22;37565;51.352;6.412;2023-04-01T22:07:32;19.10;99.90
51486;DHT22;37565;51.352;6.412;2023-04-01T22:10:17;19.10;99.90
51486;DHT22;37565;51.352;6.412;2023-04-01T22:12:50;19.10;99.90
51486;DHT22;37565;51.352;6.412;2023-04-01T22:15:28;19.20;99.90
51486;DHT22;37565;51.352;6.412;2023-04-01T22:18:05;19.20;99.90
51486;DHT22;37565;51.352;6.412;2023-04-01T22:20:42;19.20;99.90
51486;DHT22;37565;51.352;6.412;2023-04-01T22:23:22;19.20;99.90
51486;DHT22;37565;51.352;6.412;2023-04-01T22:25:58;19.10;99.90
51486;DHT22;37565;51.352;6.412;2023-04-01T22:28:32;19.10;99.90
51486;DHT22;37565;51.352;6.412;2023-04-01T22:31:03;19.10;99.90
51486;DHT22;37565;51.352;6.412;2023-04-01T22:33:37;19.10;99.90
51486;DHT22;37565;51.352;6.412;2023-04-01T22:36:13;19.10;99.90
51486;DHT22;37565;51.352;6.412;2023-04-01T22:38:56;19.10;99.90
51486;DHT22;37565;51.352;6.412;2023-04-01T22:41:35;19.10;99.90
51486;DHT22;37565;51.352;6.412;2023-04-01T22:44:11;19.10;99.90
51486;DHT22;37565;51.352;6.412;2023-04-01T22:46:53;19.10;99.90
51486;DHT22;37565;51.352;6.412;2023-04-01T22:49:29;19.10;99.90
51486;DHT22;37565;51.352;6.412;2023-04-01T22:52:05;19.10;99.90
